sensor_id;sensor_type;location;lat;lon;timestamp;P1;durP1;ratioP1;P2;durP2;ratioP2
8247;SDS011;4164;49.844;8.830;2023-06-26T00:00:45;7.07;;;5.30;;
8247;SDS011;4164;49.844;8.830;2023-06-26T00:03:12;5.40;;;4.60;;
8247;SDS011;4164;49.844;8.830;2023-06-26T00:05:40;6.20;;;5.40;;
8247;SDS011;4164;49.844;8.830;2023-06-26T00:08:08;5.20;;;4.70;;
8247;SDS011;4164;49.844;8.830;2023-06-26T00:10:34;6.07;;;5.47;;
8247;SDS011;4164;49.844;8.830;2023-06-26T00:12:59;6.77;;;5.50;;
8247;SDS011;4164;49.844;8.830;2023-06-26T00:15:25;5.43;;;4.90;;
8247;SDS011;4164;49.844;8.830;2023-06-26T00:17:51;5.27;;;4.77;;
8247;SDS011;4164;49.844;8.830;2023-06-26T00:20:16;6.20;;;4.97;;
8247;SDS011;4164;49.844;8.830;2023-06-26T00:22:43;5.83;;;5.20;;
8247;SDS011;4164;49.844;8.830;2023-06-26T00:25:10;5.93;;;5.10;;
8247;SDS011;4164;49.844;8.830;2023-06-26T00:27:35;6.67;;;5.23;;
8247;SDS011;4164;49.844;8.830;2023-06-26T00:30:01;8.63;;;5.00;;
8247;SDS011;4164;49.844;8.830;2023-06-26T00:32:26;5.53;;;5.00;;
8247;SDS011;4164;49.844;8.830;2023-06-26T00:34:52;5.40;;;4.90;;
8247;SDS011;4164;49.844;8.830;2023-06-26T00:37:18;6.17;;;5.00;;
8247;SDS011;4164;49.844;8.830;2023-06-26T00:39:43;5.63;;;4.63;;
8247;SDS011;4164;49.844;8.830;2023-06-26T00:42:09;7.47;;;5.20;;
8247;SDS011;4164;49.844;8.830;2023-06-26T00:44:35;6.13;;;5.47;;
8247;SDS011;4164;49.844;8.830;2023-06-26T00:47:00;5.40;;;4.90;;
8247;SDS011;4164;49.844;8.830;2023-06-26T00:49:26;6.30;;;4.63;;
8247;SDS011;4164;49.844;8.830;2023-06-26T00:51:52;9.70;;;4.70;;
8247;SDS011;4164;49.844;8.830;2023-06-26T00:54:18;5.73;;;4.90;;
8247;SDS011;4164;49.844;8.830;2023-06-26T00:56:45;6.60;;;4.83;;
8247;SDS011;4164;49.844;8.830;2023-06-26T00:59:14;6.70;;;4.90;;
8247;SDS011;4164;49.844;8.830;2023-06-26T01:01:40;6.10;;;5.40;;
8247;SDS011;4164;49.844;8.830;2023-06-26T01:04:05;5.47;;;4.97;;
8247;SDS011;4164;49.844;8.830;2023-06-26T01:06:31;5.93;;;5.13;;
8247;SDS011;4164;49.844;8.830;2023-06-26T01:09:00;5.80;;;5.10;;
8247;SDS011;4164;49.844;8.830;2023-06-26T01:11:26;7.23;;;5.20;;
8247;SDS011;4164;49.844;8.830;2023-06-26T01:13:53;5.20;;;4.70;;
8247;SDS011;4164;49.844;8.830;2023-06-26T01:16:20;5.27;;;4.77;;
8247;SDS011;4164;49.844;8.830;2023-06-26T01:18:47;6.07;;;5.47;;
8247;SDS011;4164;49.844;8.830;2023-06-26T01:21:13;6.80;;;5.33;;
8247;SDS011;4164;49.844;8.830;2023-06-26T01:26:22;6.77;;;5.40;;
8247;SDS011;4164;49.844;8.830;2023-06-26T01:28:49;6.47;;;5.37;;
8247;SDS011;4164;49.844;8.830;2023-06-26T01:31:16;9.17;;;5.07;;
8247;SDS011;4164;49.844;8.830;2023-06-26T01:33:42;7.33;;;5.63;;
8247;SDS011;4164;49.844;8.830;2023-06-26T01:36:08;5.40;;;4.90;;
8247;SDS011;4164;49.844;8.830;2023-06-26T01:38:35;7.00;;;5.23;;
8247;SDS011;4164;49.844;8.830;2023-06-26T01:41:01;6.17;;;5.47;;
8247;SDS011;4164;49.844;8.830;2023-06-26T01:43:43;6.83;;;5.50;;
8247;SDS011;4164;49.844;8.830;2023-06-26T01:46:40;8.10;;;5.67;;
8247;SDS011;4164;49.844;8.830;2023-06-26T01:49:30;6.23;;;5.07;;
8247;SDS011;4164;49.844;8.830;2023-06-26T01:52:16;5.77;;;5.17;;
8247;SDS011;4164;49.844;8.830;2023-06-26T01:57:43;7.93;;;6.00;;
8247;SDS011;4164;49.844;8.830;2023-06-26T02:00:11;6.17;;;5.10;;
8247;SDS011;4164;49.844;8.830;2023-06-26T02:02:43;5.87;;;4.83;;
8247;SDS011;4164;49.844;8.830;2023-06-26T02:05:09;6.50;;;4.50;;
8247;SDS011;4164;49.844;8.830;2023-06-26T02:07:35;5.47;;;4.93;;
8247;SDS011;4164;49.844;8.830;2023-06-26T02:10:01;6.47;;;5.13;;
8247;SDS011;4164;49.844;8.830;2023-06-26T02:12:27;5.40;;;4.90;;
8247;SDS011;4164;49.844;8.830;2023-06-26T02:14:53;5.90;;;5.30;;
8247;SDS011;4164;49.844;8.830;2023-06-26T02:17:18;5.23;;;4.77;;
8247;SDS011;4164;49.844;8.830;2023-06-26T02:19:44;5.77;;;5.27;;
8247;SDS011;4164;49.844;8.830;2023-06-26T02:22:15;5.90;;;5.30;;
8247;SDS011;4164;49.844;8.830;2023-06-26T02:24:44;6.03;;;4.90;;
8247;SDS011;4164;49.844;8.830;2023-06-26T02:27:10;6.40;;;4.90;;
8247;SDS011;4164;49.844;8.830;2023-06-26T02:29:36;9.37;;;5.27;;
8247;SDS011;4164;49.844;8.830;2023-06-26T02:32:01;7.30;;;4.87;;
8247;SDS011;4164;49.844;8.830;2023-06-26T02:34:27;4.97;;;4.37;;
8247;SDS011;4164;49.844;8.830;2023-06-26T02:36:53;5.70;;;5.10;;
8247;SDS011;4164;49.844;8.830;2023-06-26T02:39:21;5.43;;;4.93;;
8247;SDS011;4164;49.844;8.830;2023-06-26T02:41:47;6.13;;;5.40;;
8247;SDS011;4164;49.844;8.830;2023-06-26T02:44:13;5.93;;;5.37;;
8247;SDS011;4164;49.844;8.830;2023-06-26T02:46:39;7.13;;;5.17;;
8247;SDS011;4164;49.844;8.830;2023-06-26T02:49:05;5.53;;;5.00;;
8247;SDS011;4164;49.844;8.830;2023-06-26T02:51:34;6.50;;;5.23;;
8247;SDS011;4164;49.844;8.830;2023-06-26T02:53:59;6.10;;;4.97;;
8247;SDS011;4164;49.844;8.830;2023-06-26T02:56:25;6.97;;;5.10;;
8247;SDS011;4164;49.844;8.830;2023-06-26T02:58:55;5.13;;;4.63;;
8247;SDS011;4164;49.844;8.830;2023-06-26T03:01:21;5.73;;;4.83;;
8247;SDS011;4164;49.844;8.830;2023-06-26T03:03:46;7.40;;;5.00;;
8247;SDS011;4164;49.844;8.830;2023-06-26T03:06:12;6.63;;;4.73;;
8247;SDS011;4164;49.844;8.830;2023-06-26T03:08:39;8.40;;;5.47;;
8247;SDS011;4164;49.844;8.830;2023-06-26T03:11:05;5.63;;;4.97;;
8247;SDS011;4164;49.844;8.830;2023-06-26T03:13:32;5.97;;;5.37;;
8247;SDS011;4164;49.844;8.830;2023-06-26T03:15:58;5.80;;;5.20;;
8247;SDS011;4164;49.844;8.830;2023-06-26T03:18:24;5.43;;;4.73;;
8247;SDS011;4164;49.844;8.830;2023-06-26T03:20:49;7.70;;;5.60;;
8247;SDS011;4164;49.844;8.830;2023-06-26T03:23:15;6.10;;;4.93;;
8247;SDS011;4164;49.844;8.830;2023-06-26T03:25:41;5.97;;;5.37;;
8247;SDS011;4164;49.844;8.830;2023-06-26T03:28:06;8.83;;;5.10;;
8247;SDS011;4164;49.844;8.830;2023-06-26T03:30:32;5.20;;;4.70;;
8247;SDS011;4164;49.844;8.830;2023-06-26T03:32:57;8.63;;;5.63;;
8247;SDS011;4164;49.844;8.830;2023-06-26T03:35:23;5.67;;;4.83;;
8247;SDS011;4164;49.844;8.830;2023-06-26T03:37:49;6.60;;;5.30;;
8247;SDS011;4164;49.844;8.830;2023-06-26T03:40:15;5.70;;;4.97;;
8247;SDS011;4164;49.844;8.830;2023-06-26T03:42:41;6.00;;;4.70;;
8247;SDS011;4164;49.844;8.830;2023-06-26T03:45:07;6.57;;;5.00;;
8247;SDS011;4164;49.844;8.830;2023-06-26T03:47:33;5.87;;;5.33;;
8247;SDS011;4164;49.844;8.830;2023-06-26T03:49:58;8.63;;;5.17;;
8247;SDS011;4164;49.844;8.830;2023-06-26T03:52:24;6.73;;;4.90;;
8247;SDS011;4164;49.844;8.830;2023-06-26T03:54:50;6.60;;;5.60;;
8247;SDS011;4164;49.844;8.830;2023-06-26T03:57:15;6.63;;;5.30;;
8247;SDS011;4164;49.844;8.830;2023-06-26T03:59:41;6.90;;;6.20;;
8247;SDS011;4164;49.844;8.830;2023-06-26T04:02:06;9.83;;;5.47;;
8247;SDS011;4164;49.844;8.830;2023-06-26T04:04:32;8.70;;;5.23;;
8247;SDS011;4164;49.844;8.830;2023-06-26T04:06:57;6.43;;;5.13;;
8247;SDS011;4164;49.844;8.830;2023-06-26T04:09:24;8.50;;;5.73;;
8247;SDS011;4164;49.844;8.830;2023-06-26T04:11:50;5.80;;;5.20;;
8247;SDS011;4164;49.844;8.830;2023-06-26T04:14:16;9.30;;;6.00;;
8247;SDS011;4164;49.844;8.830;2023-06-26T04:16:41;10.00;;;5.13;;
8247;SDS011;4164;49.844;8.830;2023-06-26T04:19:07;7.03;;;5.70;;
8247;SDS011;4164;49.844;8.830;2023-06-26T04:21:35;8.27;;;5.27;;
8247;SDS011;4164;49.844;8.830;2023-06-26T04:24:00;6.77;;;5.60;;
8247;SDS011;4164;49.844;8.830;2023-06-26T04:26:26;8.90;;;5.80;;
8247;SDS011;4164;49.844;8.830;2023-06-26T04:28:52;6.70;;;5.60;;
8247;SDS011;4164;49.844;8.830;2023-06-26T04:31:18;8.10;;;5.53;;
8247;SDS011;4164;49.844;8.830;2023-06-26T04:33:44;6.13;;;5.30;;
8247;SDS011;4164;49.844;8.830;2023-06-26T04:36:09;7.67;;;6.00;;
8247;SDS011;4164;49.844;8.830;2023-06-26T04:38:36;6.00;;;5.37;;
8247;SDS011;4164;49.844;8.830;2023-06-26T04:41:01;6.03;;;5.00;;
8247;SDS011;4164;49.844;8.830;2023-06-26T04:43:28;5.70;;;5.13;;
8247;SDS011;4164;49.844;8.830;2023-06-26T04:45:53;6.47;;;5.53;;
8247;SDS011;4164;49.844;8.830;2023-06-26T04:48:19;6.47;;;5.40;;
8247;SDS011;4164;49.844;8.830;2023-06-26T04:50:45;8.90;;;6.10;;
8247;SDS011;4164;49.844;8.830;2023-06-26T04:53:18;8.17;;;5.57;;
8247;SDS011;4164;49.844;8.830;2023-06-26T04:55:48;7.33;;;5.37;;
8247;SDS011;4164;49.844;8.830;2023-06-26T04:58:14;8.03;;;5.37;;
8247;SDS011;4164;49.844;8.830;2023-06-26T05:00:40;6.53;;;5.90;;
8247;SDS011;4164;49.844;8.830;2023-06-26T05:03:08;8.53;;;5.60;;
8247;SDS011;4164;49.844;8.830;2023-06-26T05:05:37;8.00;;;5.60;;
8247;SDS011;4164;49.844;8.830;2023-06-26T05:08:15;5.77;;;5.17;;
8247;SDS011;4164;49.844;8.830;2023-06-26T05:10:42;7.77;;;6.23;;
8247;SDS011;4164;49.844;8.830;2023-06-26T05:13:07;6.63;;;5.67;;
8247;SDS011;4164;49.844;8.830;2023-06-26T05:15:33;7.53;;;6.20;;
8247;SDS011;4164;49.844;8.830;2023-06-26T05:17:58;6.57;;;5.73;;
8247;SDS011;4164;49.844;8.830;2023-06-26T05:20:24;6.47;;;5.40;;
8247;SDS011;4164;49.844;8.830;2023-06-26T05:22:49;8.07;;;6.17;;
8247;SDS011;4164;49.844;8.830;2023-06-26T05:25:15;10.30;;;5.80;;
8247;SDS011;4164;49.844;8.830;2023-06-26T05:27:43;7.77;;;6.10;;
8247;SDS011;4164;49.844;8.830;2023-06-26T05:30:09;6.57;;;5.50;;
8247;SDS011;4164;49.844;8.830;2023-06-26T05:32:35;6.50;;;5.90;;
8247;SDS011;4164;49.844;8.830;2023-06-26T05:35:02;9.90;;;5.83;;
8247;SDS011;4164;49.844;8.830;2023-06-26T05:37:29;7.33;;;6.00;;
8247;SDS011;4164;49.844;8.830;2023-06-26T05:39:57;7.43;;;6.27;;
8247;SDS011;4164;49.844;8.830;2023-06-26T05:42:22;8.37;;;6.50;;
8247;SDS011;4164;49.844;8.830;2023-06-26T05:44:48;11.47;;;5.80;;
8247;SDS011;4164;49.844;8.830;2023-06-26T05:47:14;9.97;;;5.40;;
8247;SDS011;4164;49.844;8.830;2023-06-26T05:49:39;9.33;;;5.80;;
8247;SDS011;4164;49.844;8.830;2023-06-26T05:52:05;7.93;;;5.57;;
8247;SDS011;4164;49.844;8.830;2023-06-26T05:54:31;7.63;;;5.50;;
8247;SDS011;4164;49.844;8.830;2023-06-26T05:56:57;7.67;;;5.90;;
8247;SDS011;4164;49.844;8.830;2023-06-26T05:59:24;7.93;;;6.23;;
8247;SDS011;4164;49.844;8.830;2023-06-26T06:01:51;6.57;;;5.97;;
8247;SDS011;4164;49.844;8.830;2023-06-26T06:04:17;11.47;;;6.43;;
8247;SDS011;4164;49.844;8.830;2023-06-26T06:06:43;6.50;;;5.90;;
8247;SDS011;4164;49.844;8.830;2023-06-26T06:09:08;9.20;;;6.57;;
8247;SDS011;4164;49.844;8.830;2023-06-26T06:11:34;11.00;;;6.30;;
8247;SDS011;4164;49.844;8.830;2023-06-26T06:13:59;7.80;;;6.47;;
8247;SDS011;4164;49.844;8.830;2023-06-26T06:16:25;9.33;;;6.07;;
8247;SDS011;4164;49.844;8.830;2023-06-26T06:18:53;8.93;;;5.83;;
8247;SDS011;4164;49.844;8.830;2023-06-26T06:21:18;9.07;;;6.20;;
8247;SDS011;4164;49.844;8.830;2023-06-26T06:23:44;10.03;;;6.30;;
8247;SDS011;4164;49.844;8.830;2023-06-26T06:26:10;6.60;;;6.00;;
8247;SDS011;4164;49.844;8.830;2023-06-26T06:28:36;7.90;;;6.10;;
8247;SDS011;4164;49.844;8.830;2023-06-26T06:31:01;6.80;;;6.10;;
8247;SDS011;4164;49.844;8.830;2023-06-26T06:33:27;7.20;;;5.83;;
8247;SDS011;4164;49.844;8.830;2023-06-26T06:35:53;8.83;;;5.97;;
8247;SDS011;4164;49.844;8.830;2023-06-26T06:38:18;8.53;;;6.23;;
8247;SDS011;4164;49.844;8.830;2023-06-26T06:40:44;7.77;;;5.77;;
8247;SDS011;4164;49.844;8.830;2023-06-26T06:43:09;7.77;;;5.90;;
8247;SDS011;4164;49.844;8.830;2023-06-26T06:45:35;7.20;;;5.83;;
8247;SDS011;4164;49.844;8.830;2023-06-26T06:48:02;8.13;;;6.50;;
8247;SDS011;4164;49.844;8.830;2023-06-26T06:50:28;6.73;;;5.90;;
8247;SDS011;4164;49.844;8.830;2023-06-26T06:52:54;6.73;;;5.83;;
8247;SDS011;4164;49.844;8.830;2023-06-26T06:55:19;6.23;;;5.47;;
8247;SDS011;4164;49.844;8.830;2023-06-26T06:57:45;8.43;;;5.40;;
8247;SDS011;4164;49.844;8.830;2023-06-26T07:00:11;6.27;;;5.63;;
8247;SDS011;4164;49.844;8.830;2023-06-26T07:02:39;6.10;;;5.50;;
8247;SDS011;4164;49.844;8.830;2023-06-26T07:05:07;6.80;;;5.83;;
8247;SDS011;4164;49.844;8.830;2023-06-26T07:07:34;7.10;;;6.00;;
8247;SDS011;4164;49.844;8.830;2023-06-26T07:10:02;7.83;;;5.73;;
8247;SDS011;4164;49.844;8.830;2023-06-26T07:12:30;6.13;;;5.63;;
8247;SDS011;4164;49.844;8.830;2023-06-26T07:14:57;6.47;;;5.87;;
8247;SDS011;4164;49.844;8.830;2023-06-26T07:17:23;7.57;;;5.83;;
8247;SDS011;4164;49.844;8.830;2023-06-26T07:19:49;6.70;;;5.97;;
8247;SDS011;4164;49.844;8.830;2023-06-26T07:22:14;7.37;;;6.00;;
8247;SDS011;4164;49.844;8.830;2023-06-26T07:24:41;7.67;;;6.57;;
8247;SDS011;4164;49.844;8.830;2023-06-26T07:27:06;11.77;;;6.27;;
8247;SDS011;4164;49.844;8.830;2023-06-26T07:29:32;7.07;;;5.97;;
8247;SDS011;4164;49.844;8.830;2023-06-26T07:31:58;9.87;;;6.00;;
8247;SDS011;4164;49.844;8.830;2023-06-26T07:34:23;6.47;;;5.73;;
8247;SDS011;4164;49.844;8.830;2023-06-26T07:36:49;7.27;;;6.10;;
8247;SDS011;4164;49.844;8.830;2023-06-26T07:39:14;7.60;;;5.97;;
8247;SDS011;4164;49.844;8.830;2023-06-26T07:41:40;7.17;;;6.03;;
8247;SDS011;4164;49.844;8.830;2023-06-26T07:44:06;6.70;;;5.57;;
8247;SDS011;4164;49.844;8.830;2023-06-26T07:46:31;7.03;;;6.23;;
8247;SDS011;4164;49.844;8.830;2023-06-26T07:48:57;6.90;;;6.03;;
8247;SDS011;4164;49.844;8.830;2023-06-26T07:51:22;7.67;;;6.30;;
8247;SDS011;4164;49.844;8.830;2023-06-26T07:53:49;6.57;;;5.87;;
8247;SDS011;4164;49.844;8.830;2023-06-26T07:56:14;6.00;;;5.40;;
8247;SDS011;4164;49.844;8.830;2023-06-26T07:58:40;9.17;;;5.97;;
8247;SDS011;4164;49.844;8.830;2023-06-26T08:01:05;9.03;;;6.33;;
8247;SDS011;4164;49.844;8.830;2023-06-26T08:03:31;8.60;;;6.33;;
8247;SDS011;4164;49.844;8.830;2023-06-26T08:05:56;7.87;;;6.53;;
8247;SDS011;4164;49.844;8.830;2023-06-26T08:08:22;6.97;;;5.47;;
8247;SDS011;4164;49.844;8.830;2023-06-26T08:10:50;7.47;;;6.00;;
8247;SDS011;4164;49.844;8.830;2023-06-26T08:13:16;5.97;;;5.33;;
8247;SDS011;4164;49.844;8.830;2023-06-26T08:15:41;6.97;;;5.40;;
8247;SDS011;4164;49.844;8.830;2023-06-26T08:18:07;6.17;;;5.57;;
8247;SDS011;4164;49.844;8.830;2023-06-26T08:20:32;6.23;;;5.63;;
8247;SDS011;4164;49.844;8.830;2023-06-26T08:23:00;8.27;;;6.10;;
8247;SDS011;4164;49.844;8.830;2023-06-26T08:25:26;5.97;;;5.37;;
8247;SDS011;4164;49.844;8.830;2023-06-26T08:27:54;6.73;;;5.67;;
8247;SDS011;4164;49.844;8.830;2023-06-26T08:30:20;7.33;;;5.97;;
8247;SDS011;4164;49.844;8.830;2023-06-26T08:32:46;10.03;;;6.77;;
8247;SDS011;4164;49.844;8.830;2023-06-26T08:35:12;8.13;;;6.60;;
8247;SDS011;4164;49.844;8.830;2023-06-26T08:37:38;8.67;;;6.27;;
8247;SDS011;4164;49.844;8.830;2023-06-26T08:40:03;7.67;;;6.60;;
8247;SDS011;4164;49.844;8.830;2023-06-26T08:42:29;7.30;;;6.60;;
8247;SDS011;4164;49.844;8.830;2023-06-26T08:44:55;7.07;;;6.37;;
8247;SDS011;4164;49.844;8.830;2023-06-26T08:47:21;7.20;;;6.50;;
8247;SDS011;4164;49.844;8.830;2023-06-26T08:49:56;11.13;;;6.23;;
8247;SDS011;4164;49.844;8.830;2023-06-26T08:52:30;9.33;;;7.13;;
8247;SDS011;4164;49.844;8.830;2023-06-26T08:55:01;7.40;;;6.70;;
8247;SDS011;4164;49.844;8.830;2023-06-26T08:57:29;7.97;;;7.17;;
8247;SDS011;4164;49.844;8.830;2023-06-26T08:59:57;12.50;;;6.73;;
8247;SDS011;4164;49.844;8.830;2023-06-26T09:02:22;10.83;;;6.37;;
8247;SDS011;4164;49.844;8.830;2023-06-26T09:04:49;9.07;;;6.90;;
8247;SDS011;4164;49.844;8.830;2023-06-26T09:07:15;10.43;;;7.13;;
8247;SDS011;4164;49.844;8.830;2023-06-26T09:09:41;9.20;;;6.90;;
8247;SDS011;4164;49.844;8.830;2023-06-26T09:12:08;9.43;;;6.53;;
8247;SDS011;4164;49.844;8.830;2023-06-26T09:14:34;10.87;;;6.93;;
8247;SDS011;4164;49.844;8.830;2023-06-26T09:17:01;10.70;;;6.47;;
8247;SDS011;4164;49.844;8.830;2023-06-26T09:19:27;8.80;;;6.73;;
8247;SDS011;4164;49.844;8.830;2023-06-26T09:21:52;7.33;;;6.30;;
8247;SDS011;4164;49.844;8.830;2023-06-26T09:24:20;7.20;;;6.27;;
8247;SDS011;4164;49.844;8.830;2023-06-26T09:26:46;6.87;;;6.17;;
8247;SDS011;4164;49.844;8.830;2023-06-26T09:29:13;7.47;;;6.10;;
8247;SDS011;4164;49.844;8.830;2023-06-26T09:31:39;12.77;;;6.53;;
8247;SDS011;4164;49.844;8.830;2023-06-26T09:34:05;7.17;;;6.43;;
8247;SDS011;4164;49.844;8.830;2023-06-26T09:36:32;6.90;;;6.20;;
8247;SDS011;4164;49.844;8.830;2023-06-26T09:38:59;6.83;;;6.17;;
8247;SDS011;4164;49.844;8.830;2023-06-26T09:41:25;6.40;;;5.80;;
8247;SDS011;4164;49.844;8.830;2023-06-26T09:43:51;8.27;;;6.83;;
8247;SDS011;4164;49.844;8.830;2023-06-26T09:46:17;7.80;;;6.97;;
8247;SDS011;4164;49.844;8.830;2023-06-26T09:48:49;7.37;;;6.23;;
8247;SDS011;4164;49.844;8.830;2023-06-26T09:51:22;7.83;;;6.70;;
8247;SDS011;4164;49.844;8.830;2023-06-26T09:53:48;10.23;;;6.73;;
8247;SDS011;4164;49.844;8.830;2023-06-26T09:56:17;6.60;;;6.00;;
8247;SDS011;4164;49.844;8.830;2023-06-26T09:58:43;7.87;;;6.63;;
8247;SDS011;4164;49.844;8.830;2023-06-26T10:01:09;9.37;;;6.53;;
8247;SDS011;4164;49.844;8.830;2023-06-26T10:03:35;6.87;;;5.53;;
8247;SDS011;4164;49.844;8.830;2023-06-26T10:06:01;6.93;;;5.67;;
8247;SDS011;4164;49.844;8.830;2023-06-26T10:08:27;6.60;;;5.73;;
8247;SDS011;4164;49.844;8.830;2023-06-26T10:10:54;6.40;;;5.60;;
8247;SDS011;4164;49.844;8.830;2023-06-26T10:13:22;7.93;;;5.53;;
8247;SDS011;4164;49.844;8.830;2023-06-26T10:15:52;7.20;;;5.80;;
8247;SDS011;4164;49.844;8.830;2023-06-26T10:18:20;6.77;;;5.50;;
8247;SDS011;4164;49.844;8.830;2023-06-26T10:20:48;6.27;;;5.67;;
8247;SDS011;4164;49.844;8.830;2023-06-26T10:23:18;6.20;;;5.53;;
8247;SDS011;4164;49.844;8.830;2023-06-26T10:25:48;6.57;;;5.70;;
8247;SDS011;4164;49.844;8.830;2023-06-26T10:28:16;10.23;;;5.73;;
8247;SDS011;4164;49.844;8.830;2023-06-26T10:30:44;6.33;;;5.30;;
8247;SDS011;4164;49.844;8.830;2023-06-26T10:33:12;9.07;;;6.03;;
8247;SDS011;4164;49.844;8.830;2023-06-26T10:35:42;8.73;;;5.57;;
8247;SDS011;4164;49.844;8.830;2023-06-26T10:38:09;10.00;;;6.17;;
8247;SDS011;4164;49.844;8.830;2023-06-26T10:40:41;6.97;;;5.90;;
8247;SDS011;4164;49.844;8.830;2023-06-26T10:43:10;8.60;;;6.10;;
8247;SDS011;4164;49.844;8.830;2023-06-26T10:45:43;7.30;;;6.07;;
8247;SDS011;4164;49.844;8.830;2023-06-26T10:48:19;7.03;;;6.33;;
8247;SDS011;4164;49.844;8.830;2023-06-26T10:50:49;11.03;;;6.27;;
8247;SDS011;4164;49.844;8.830;2023-06-26T10:56:01;11.37;;;6.50;;
8247;SDS011;4164;49.844;8.830;2023-06-26T10:58:32;6.63;;;5.87;;
8247;SDS011;4164;49.844;8.830;2023-06-26T11:04:05;9.27;;;5.77;;
8247;SDS011;4164;49.844;8.830;2023-06-26T11:06:32;6.83;;;5.70;;
8247;SDS011;4164;49.844;8.830;2023-06-26T11:09:08;7.80;;;5.30;;
8247;SDS011;4164;49.844;8.830;2023-06-26T11:14:29;6.97;;;5.50;;
8247;SDS011;4164;49.844;8.830;2023-06-26T11:16:55;9.33;;;6.10;;
8247;SDS011;4164;49.844;8.830;2023-06-26T11:19:22;10.60;;;6.23;;
8247;SDS011;4164;49.844;8.830;2023-06-26T11:21:51;6.87;;;6.00;;
8247;SDS011;4164;49.844;8.830;2023-06-26T11:24:22;6.47;;;5.80;;
8247;SDS011;4164;49.844;8.830;2023-06-26T11:26:48;6.13;;;5.53;;
8247;SDS011;4164;49.844;8.830;2023-06-26T11:29:14;10.13;;;5.70;;
8247;SDS011;4164;49.844;8.830;2023-06-26T11:31:40;11.27;;;6.13;;
8247;SDS011;4164;49.844;8.830;2023-06-26T11:34:11;7.80;;;5.97;;
8247;SDS011;4164;49.844;8.830;2023-06-26T11:36:41;6.37;;;5.50;;
8247;SDS011;4164;49.844;8.830;2023-06-26T11:39:07;7.00;;;6.30;;
8247;SDS011;4164;49.844;8.830;2023-06-26T11:41:36;6.77;;;6.07;;
8247;SDS011;4164;49.844;8.830;2023-06-26T11:44:04;6.07;;;5.47;;
8247;SDS011;4164;49.844;8.830;2023-06-26T11:46:31;6.60;;;5.93;;
8247;SDS011;4164;49.844;8.830;2023-06-26T11:48:59;6.20;;;5.60;;
8247;SDS011;4164;49.844;8.830;2023-06-26T11:51:26;6.70;;;5.73;;
8247;SDS011;4164;49.844;8.830;2023-06-26T11:53:53;6.37;;;5.50;;
8247;SDS011;4164;49.844;8.830;2023-06-26T11:56:19;5.83;;;5.20;;
8247;SDS011;4164;49.844;8.830;2023-06-26T12:01:36;6.93;;;5.30;;
8247;SDS011;4164;49.844;8.830;2023-06-26T12:04:13;9.07;;;6.23;;
8247;SDS011;4164;49.844;8.830;2023-06-26T12:06:46;5.93;;;5.13;;
8247;SDS011;4164;49.844;8.830;2023-06-26T12:09:15;5.93;;;5.43;;
8247;SDS011;4164;49.844;8.830;2023-06-26T12:11:43;6.70;;;5.73;;
8247;SDS011;4164;49.844;8.830;2023-06-26T12:14:13;5.87;;;5.07;;
8247;SDS011;4164;49.844;8.830;2023-06-26T12:16:39;7.50;;;5.57;;
8247;SDS011;4164;49.844;8.830;2023-06-26T12:19:06;8.73;;;5.60;;
8247;SDS011;4164;49.844;8.830;2023-06-26T12:24:06;9.27;;;5.07;;
8247;SDS011;4164;49.844;8.830;2023-06-26T12:26:38;8.47;;;5.47;;
8247;SDS011;4164;49.844;8.830;2023-06-26T12:29:07;5.83;;;5.20;;
8247;SDS011;4164;49.844;8.830;2023-06-26T12:31:40;6.63;;;5.33;;
8247;SDS011;4164;49.844;8.830;2023-06-26T12:34:14;6.60;;;5.37;;
8247;SDS011;4164;49.844;8.830;2023-06-26T12:36:46;6.60;;;6.00;;
8247;SDS011;4164;49.844;8.830;2023-06-26T12:39:15;5.90;;;5.30;;
8247;SDS011;4164;49.844;8.830;2023-06-26T12:41:53;10.37;;;5.90;;
8247;SDS011;4164;49.844;8.830;2023-06-26T12:44:21;8.13;;;6.07;;
8247;SDS011;4164;49.844;8.830;2023-06-26T12:46:49;8.40;;;5.70;;
8247;SDS011;4164;49.844;8.830;2023-06-26T12:49:18;10.40;;;5.80;;
8247;SDS011;4164;49.844;8.830;2023-06-26T12:51:44;8.43;;;6.30;;
8247;SDS011;4164;49.844;8.830;2023-06-26T12:54:09;6.60;;;5.70;;
8247;SDS011;4164;49.844;8.830;2023-06-26T12:56:35;7.87;;;5.87;;
8247;SDS011;4164;49.844;8.830;2023-06-26T12:59:01;6.80;;;5.27;;
8247;SDS011;4164;49.844;8.830;2023-06-26T13:01:27;10.40;;;5.97;;
8247;SDS011;4164;49.844;8.830;2023-06-26T13:03:53;6.73;;;5.70;;
8247;SDS011;4164;49.844;8.830;2023-06-26T13:06:18;7.40;;;6.70;;
8247;SDS011;4164;49.844;8.830;2023-06-26T13:08:44;7.93;;;6.47;;
8247;SDS011;4164;49.844;8.830;2023-06-26T13:11:10;8.10;;;7.30;;
8247;SDS011;4164;49.844;8.830;2023-06-26T13:13:35;8.00;;;6.90;;
8247;SDS011;4164;49.844;8.830;2023-06-26T13:16:01;9.87;;;7.07;;
8247;SDS011;4164;49.844;8.830;2023-06-26T13:18:27;8.77;;;7.63;;
8247;SDS011;4164;49.844;8.830;2023-06-26T13:20:52;8.00;;;7.20;;
8247;SDS011;4164;49.844;8.830;2023-06-26T13:23:18;7.87;;;7.07;;
8247;SDS011;4164;49.844;8.830;2023-06-26T13:25:44;9.50;;;7.03;;
8247;SDS011;4164;49.844;8.830;2023-06-26T13:28:10;12.53;;;6.63;;
8247;SDS011;4164;49.844;8.830;2023-06-26T13:30:35;9.13;;;7.17;;
8247;SDS011;4164;49.844;8.830;2023-06-26T13:33:01;9.43;;;7.13;;
8247;SDS011;4164;49.844;8.830;2023-06-26T13:35:27;6.93;;;6.20;;
8247;SDS011;4164;49.844;8.830;2023-06-26T13:37:53;8.97;;;6.33;;
8247;SDS011;4164;49.844;8.830;2023-06-26T13:40:18;6.70;;;6.00;;
8247;SDS011;4164;49.844;8.830;2023-06-26T13:42:44;8.17;;;5.50;;
8247;SDS011;4164;49.844;8.830;2023-06-26T13:45:10;7.20;;;6.50;;
8247;SDS011;4164;49.844;8.830;2023-06-26T13:47:36;8.33;;;5.70;;
8247;SDS011;4164;49.844;8.830;2023-06-26T13:50:06;5.40;;;4.87;;
8247;SDS011;4164;49.844;8.830;2023-06-26T13:52:35;8.20;;;5.83;;
8247;SDS011;4164;49.844;8.830;2023-06-26T13:55:00;6.97;;;4.90;;
8247;SDS011;4164;49.844;8.830;2023-06-26T13:57:30;6.87;;;5.27;;
8247;SDS011;4164;49.844;8.830;2023-06-26T13:59:56;6.43;;;4.57;;
8247;SDS011;4164;49.844;8.830;2023-06-26T14:02:21;10.73;;;5.80;;
8247;SDS011;4164;49.844;8.830;2023-06-26T14:04:47;7.07;;;5.60;;
8247;SDS011;4164;49.844;8.830;2023-06-26T14:07:13;10.23;;;5.97;;
8247;SDS011;4164;49.844;8.830;2023-06-26T14:09:39;6.43;;;5.77;;
8247;SDS011;4164;49.844;8.830;2023-06-26T14:12:05;7.33;;;5.27;;
8247;SDS011;4164;49.844;8.830;2023-06-26T14:14:31;11.03;;;5.83;;
8247;SDS011;4164;49.844;8.830;2023-06-26T14:16:57;9.80;;;6.30;;
8247;SDS011;4164;49.844;8.830;2023-06-26T14:19:24;7.47;;;5.30;;
8247;SDS011;4164;49.844;8.830;2023-06-26T14:21:51;6.37;;;5.20;;
8247;SDS011;4164;49.844;8.830;2023-06-26T14:24:16;5.30;;;4.80;;
8247;SDS011;4164;49.844;8.830;2023-06-26T14:26:45;10.07;;;5.10;;
8247;SDS011;4164;49.844;8.830;2023-06-26T14:29:10;10.40;;;5.27;;
8247;SDS011;4164;49.844;8.830;2023-06-26T14:31:36;8.10;;;4.77;;
8247;SDS011;4164;49.844;8.830;2023-06-26T14:34:01;6.77;;;5.10;;
8247;SDS011;4164;49.844;8.830;2023-06-26T14:36:28;9.07;;;5.30;;
8247;SDS011;4164;49.844;8.830;2023-06-26T14:38:56;6.00;;;5.27;;
8247;SDS011;4164;49.844;8.830;2023-06-26T14:41:21;8.47;;;4.40;;
8247;SDS011;4164;49.844;8.830;2023-06-26T14:43:47;7.77;;;5.17;;
8247;SDS011;4164;49.844;8.830;2023-06-26T14:46:13;6.50;;;4.37;;
8247;SDS011;4164;49.844;8.830;2023-06-26T14:48:39;7.07;;;4.47;;
8247;SDS011;4164;49.844;8.830;2023-06-26T14:51:04;11.03;;;4.70;;
8247;SDS011;4164;49.844;8.830;2023-06-26T14:53:30;7.73;;;4.73;;
8247;SDS011;4164;49.844;8.830;2023-06-26T14:55:55;5.93;;;4.13;;
8247;SDS011;4164;49.844;8.830;2023-06-26T14:58:21;5.73;;;4.13;;
8247;SDS011;4164;49.844;8.830;2023-06-26T15:00:47;5.13;;;4.03;;
8247;SDS011;4164;49.844;8.830;2023-06-26T15:03:13;4.47;;;3.47;;
8247;SDS011;4164;49.844;8.830;2023-06-26T15:05:39;4.20;;;3.80;;
8247;SDS011;4164;49.844;8.830;2023-06-26T15:08:04;6.50;;;4.40;;
8247;SDS011;4164;49.844;8.830;2023-06-26T15:10:30;5.07;;;3.97;;
8247;SDS011;4164;49.844;8.830;2023-06-26T15:12:55;9.60;;;4.07;;
8247;SDS011;4164;49.844;8.830;2023-06-26T15:15:21;4.83;;;3.80;;
8247;SDS011;4164;49.844;8.830;2023-06-26T15:17:47;7.23;;;3.93;;
8247;SDS011;4164;49.844;8.830;2023-06-26T15:20:12;6.10;;;4.10;;
8247;SDS011;4164;49.844;8.830;2023-06-26T15:22:38;8.83;;;3.70;;
8247;SDS011;4164;49.844;8.830;2023-06-26T15:25:05;6.10;;;3.47;;
8247;SDS011;4164;49.844;8.830;2023-06-26T15:27:31;6.73;;;3.60;;
8247;SDS011;4164;49.844;8.830;2023-06-26T15:29:57;7.23;;;3.87;;
8247;SDS011;4164;49.844;8.830;2023-06-26T15:32:23;7.03;;;3.47;;